sensor_id;sensor_type;location;lat;lon;timestamp;pressure;altitude;pressure_sealevel;temperature;humidity
35577;BME280;21680;52.400;16.920;2023-05-22T00:00:13;101109.01;;;16.15;46.85
35577;BME280;21680;52.400;16.920;2023-05-22T00:02:39;101104.11;;;16.12;47.03
35577;BME280;21680;52.400;16.920;2023-05-22T00:05:12;101107.21;;;16.08;47.03
35577;BME280;21680;52.400;16.920;2023-05-22T00:07:38;101108.98;;;16.06;47.13
35577;BME280;21680;52.400;16.920;2023-05-22T00:10:05;101104.14;;;16.02;47.21
35577;BME280;21680;52.400;16.920;2023-05-22T00:12:30;101104.00;;;15.99;47.27
35577;BME280;21680;52.400;16.920;2023-05-22T00:14:55;101101.84;;;15.96;47.37
35577;BME280;21680;52.400;16.920;2023-05-22T00:17:22;101099.81;;;15.94;47.43
35577;BME280;21680;52.400;16.920;2023-05-22T00:19:47;101097.48;;;15.90;47.49
35577;BME280;21680;52.400;16.920;2023-05-22T00:22:13;101099.31;;;15.86;47.70
35577;BME280;21680;52.400;16.920;2023-05-22T00:24:38;101098.22;;;15.83;47.70
35577;BME280;21680;52.400;16.920;2023-05-22T00:27:04;101098.58;;;15.80;47.95
35577;BME280;21680;52.400;16.920;2023-05-22T00:29:29;101099.21;;;15.79;48.00
35577;BME280;21680;52.400;16.920;2023-05-22T00:31:55;101098.81;;;15.76;48.11
35577;BME280;21680;52.400;16.920;2023-05-22T00:34:20;101099.51;;;15.74;48.16
35577;BME280;21680;52.400;16.920;2023-05-22T00:36:45;101096.63;;;15.71;48.23
35577;BME280;21680;52.400;16.920;2023-05-22T00:39:10;101097.38;;;15.67;48.43
35577;BME280;21680;52.400;16.920;2023-05-22T00:41:36;101091.81;;;15.64;48.35
35577;BME280;21680;52.400;16.920;2023-05-22T00:44:02;101091.66;;;15.60;48.66
35577;BME280;21680;52.400;16.920;2023-05-22T00:46:28;101087.66;;;15.58;48.65
35577;BME280;21680;52.400;16.920;2023-05-22T00:48:53;101089.55;;;15.56;48.72
35577;BME280;21680;52.400;16.920;2023-05-22T00:51:20;101087.85;;;15.54;48.79
35577;BME280;21680;52.400;16.920;2023-05-22T00:53:46;101086.92;;;15.51;48.91
35577;BME280;21680;52.400;16.920;2023-05-22T00:56:12;101089.23;;;15.49;49.02
35577;BME280;21680;52.400;16.920;2023-05-22T00:58:39;101091.38;;;15.46;49.20
35577;BME280;21680;52.400;16.920;2023-05-22T01:01:06;101085.20;;;15.44;49.23
35577;BME280;21680;52.400;16.920;2023-05-22T01:03:35;101085.51;;;15.42;49.44
35577;BME280;21680;52.400;16.920;2023-05-22T01:06:02;101086.70;;;15.39;49.41
35577;BME280;21680;52.400;16.920;2023-05-22T01:08:28;101084.69;;;15.37;49.51
35577;BME280;21680;52.400;16.920;2023-05-22T01:10:58;101081.33;;;15.36;49.67
35577;BME280;21680;52.400;16.920;2023-05-22T01:13:30;101081.45;;;15.34;49.74
35577;BME280;21680;52.400;16.920;2023-05-22T01:16:12;101085.87;;;15.32;49.81
35577;BME280;21680;52.400;16.920;2023-05-22T01:18:54;101080.88;;;15.31;49.95
35577;BME280;21680;52.400;16.920;2023-05-22T01:21:30;101082.19;;;15.30;49.99
35577;BME280;21680;52.400;16.920;2023-05-22T01:24:21;101083.52;;;15.29;50.26
35577;BME280;21680;52.400;16.920;2023-05-22T01:32:28;101085.65;;;15.23;50.48
35577;BME280;21680;52.400;16.920;2023-05-22T01:34:58;101084.78;;;15.22;50.57
35577;BME280;21680;52.400;16.920;2023-05-22T01:37:26;101081.21;;;15.22;50.60
35577;BME280;21680;52.400;16.920;2023-05-22T01:39:52;101086.35;;;15.20;50.74
35577;BME280;21680;52.400;16.920;2023-05-22T01:42:19;101084.44;;;15.19;50.80
35577;BME280;21680;52.400;16.920;2023-05-22T01:44:44;101084.14;;;15.17;50.89
35577;BME280;21680;52.400;16.920;2023-05-22T01:47:10;101080.60;;;15.17;51.03
35577;BME280;21680;52.400;16.920;2023-05-22T01:49:35;101079.58;;;15.16;51.08
35577;BME280;21680;52.400;16.920;2023-05-22T01:52:17;101078.02;;;15.14;51.12
35577;BME280;21680;52.400;16.920;2023-05-22T01:55:08;101079.48;;;15.14;51.20
35577;BME280;21680;52.400;16.920;2023-05-22T01:57:50;101080.33;;;15.15;51.30
35577;BME280;21680;52.400;16.920;2023-05-22T02:00:21;101079.20;;;15.16;51.36
35577;BME280;21680;52.400;16.920;2023-05-22T02:02:49;101078.09;;;15.16;51.30
35577;BME280;21680;52.400;16.920;2023-05-22T02:05:16;101078.80;;;15.16;51.42
35577;BME280;21680;52.400;16.920;2023-05-22T02:07:43;101076.98;;;15.17;51.41
35577;BME280;21680;52.400;16.920;2023-05-22T02:10:10;101075.02;;;15.16;51.52
35577;BME280;21680;52.400;16.920;2023-05-22T02:12:36;101074.85;;;15.16;51.57
35577;BME280;21680;52.400;16.920;2023-05-22T02:15:03;101071.98;;;15.16;51.59
35577;BME280;21680;52.400;16.920;2023-05-22T02:17:29;101069.64;;;15.16;51.70
35577;BME280;21680;52.400;16.920;2023-05-22T02:19:54;101069.60;;;15.17;51.72
35577;BME280;21680;52.400;16.920;2023-05-22T02:22:20;101065.16;;;15.16;51.82
35577;BME280;21680;52.400;16.920;2023-05-22T02:24:46;101063.60;;;15.15;51.86
35577;BME280;21680;52.400;16.920;2023-05-22T02:27:12;101066.65;;;15.15;51.87
35577;BME280;21680;52.400;16.920;2023-05-22T02:29:38;101067.92;;;15.15;51.98
35577;BME280;21680;52.400;16.920;2023-05-22T02:32:04;101067.60;;;15.14;52.04
35577;BME280;21680;52.400;16.920;2023-05-22T02:34:30;101069.31;;;15.13;52.04
35577;BME280;21680;52.400;16.920;2023-05-22T02:36:59;101068.98;;;15.12;52.09
35577;BME280;21680;52.400;16.920;2023-05-22T02:39:27;101070.89;;;15.10;52.28
35577;BME280;21680;52.400;16.920;2023-05-22T02:41:52;101069.35;;;15.08;52.12
35577;BME280;21680;52.400;16.920;2023-05-22T02:44:18;101070.48;;;15.07;52.18
35577;BME280;21680;52.400;16.920;2023-05-22T02:46:43;101072.48;;;15.07;52.23
35577;BME280;21680;52.400;16.920;2023-05-22T02:49:08;101067.85;;;15.07;52.30
35577;BME280;21680;52.400;16.920;2023-05-22T02:51:33;101069.89;;;15.05;52.36
35577;BME280;21680;52.400;16.920;2023-05-22T02:53:59;101065.28;;;15.04;52.29
35577;BME280;21680;52.400;16.920;2023-05-22T02:56:25;101062.52;;;15.02;52.48
35577;BME280;21680;52.400;16.920;2023-05-22T02:58:53;101059.52;;;15.01;52.51
35577;BME280;21680;52.400;16.920;2023-05-22T03:01:18;101058.82;;;15.01;52.51
35577;BME280;21680;52.400;16.920;2023-05-22T03:03:43;101056.36;;;15.00;52.52
35577;BME280;21680;52.400;16.920;2023-05-22T03:06:09;101053.59;;;14.98;52.65
35577;BME280;21680;52.400;16.920;2023-05-22T03:08:35;101051.13;;;14.97;52.52
35577;BME280;21680;52.400;16.920;2023-05-22T03:11:02;101050.23;;;14.93;52.73
35577;BME280;21680;52.400;16.920;2023-05-22T03:13:27;101050.10;;;14.89;52.78
35577;BME280;21680;52.400;16.920;2023-05-22T03:15:52;101054.08;;;14.85;52.84
35577;BME280;21680;52.400;16.920;2023-05-22T03:18:18;101056.04;;;14.79;53.03
35577;BME280;21680;52.400;16.920;2023-05-22T03:20:43;101057.08;;;14.70;53.28
35577;BME280;21680;52.400;16.920;2023-05-22T03:23:10;101055.83;;;14.63;53.30
35577;BME280;21680;52.400;16.920;2023-05-22T03:25:35;101057.71;;;14.54;53.46
35577;BME280;21680;52.400;16.920;2023-05-22T03:28:01;101056.15;;;14.47;53.68
35577;BME280;21680;52.400;16.920;2023-05-22T03:30:26;101057.23;;;14.40;53.78
35577;BME280;21680;52.400;16.920;2023-05-22T03:32:51;101058.48;;;14.33;53.92
35577;BME280;21680;52.400;16.920;2023-05-22T03:35:17;101059.20;;;14.29;54.03
35577;BME280;21680;52.400;16.920;2023-05-22T03:37:44;101059.48;;;14.24;54.26
35577;BME280;21680;52.400;16.920;2023-05-22T03:40:10;101059.05;;;14.22;54.43
35577;BME280;21680;52.400;16.920;2023-05-22T03:42:36;101065.80;;;14.20;54.46
35577;BME280;21680;52.400;16.920;2023-05-22T03:45:01;101062.69;;;14.18;54.53
35577;BME280;21680;52.400;16.920;2023-05-22T03:47:26;101060.34;;;14.15;54.71
35577;BME280;21680;52.400;16.920;2023-05-22T03:49:51;101064.75;;;14.13;54.84
35577;BME280;21680;52.400;16.920;2023-05-22T03:52:16;101062.40;;;14.09;54.87
35577;BME280;21680;52.400;16.920;2023-05-22T03:54:42;101064.21;;;14.09;55.09
35577;BME280;21680;52.400;16.920;2023-05-22T03:57:07;101065.27;;;14.09;55.17
35577;BME280;21680;52.400;16.920;2023-05-22T03:59:32;101064.42;;;14.12;55.26
35577;BME280;21680;52.400;16.920;2023-05-22T04:01:57;101062.35;;;14.14;55.29
35577;BME280;21680;52.400;16.920;2023-05-22T04:04:26;101062.78;;;14.16;55.41
35577;BME280;21680;52.400;16.920;2023-05-22T04:06:51;101063.00;;;14.18;55.51
35577;BME280;21680;52.400;16.920;2023-05-22T04:09:17;101058.91;;;14.21;55.62
35577;BME280;21680;52.400;16.920;2023-05-22T04:11:42;101056.64;;;14.24;55.51
35577;BME280;21680;52.400;16.920;2023-05-22T04:14:08;101051.48;;;14.26;55.61
35577;BME280;21680;52.400;16.920;2023-05-22T04:16:34;101051.27;;;14.26;55.76
35577;BME280;21680;52.400;16.920;2023-05-22T04:19:00;101051.15;;;14.28;55.81
35577;BME280;21680;52.400;16.920;2023-05-22T04:21:27;101052.92;;;14.29;55.87
35577;BME280;21680;52.400;16.920;2023-05-22T04:23:52;101054.16;;;14.29;55.93
35577;BME280;21680;52.400;16.920;2023-05-22T04:26:18;101052.02;;;14.29;55.97
35577;BME280;21680;52.400;16.920;2023-05-22T04:28:45;101048.92;;;14.30;56.01
35577;BME280;21680;52.400;16.920;2023-05-22T04:31:14;101052.86;;;14.30;56.09
35577;BME280;21680;52.400;16.920;2023-05-22T04:33:39;101049.58;;;14.32;56.14
35577;BME280;21680;52.400;16.920;2023-05-22T04:36:07;101046.08;;;14.33;56.24
35577;BME280;21680;52.400;16.920;2023-05-22T04:38:34;101045.11;;;14.34;56.37
35577;BME280;21680;52.400;16.920;2023-05-22T04:41:01;101048.35;;;14.38;56.34
35577;BME280;21680;52.400;16.920;2023-05-22T04:43:26;101046.14;;;14.42;56.50
35577;BME280;21680;52.400;16.920;2023-05-22T04:45:51;101048.86;;;14.45;56.53
35577;BME280;21680;52.400;16.920;2023-05-22T04:48:18;101051.05;;;14.48;56.50
35577;BME280;21680;52.400;16.920;2023-05-22T04:50:43;101053.41;;;14.51;56.60
35577;BME280;21680;52.400;16.920;2023-05-22T04:53:10;101053.28;;;14.53;56.62
35577;BME280;21680;52.400;16.920;2023-05-22T04:55:37;101053.55;;;14.55;56.66
35577;BME280;21680;52.400;16.920;2023-05-22T04:58:02;101049.86;;;14.57;56.77
35577;BME280;21680;52.400;16.920;2023-05-22T05:00:29;101048.39;;;14.61;56.73
35577;BME280;21680;52.400;16.920;2023-05-22T05:02:55;101045.66;;;14.65;56.86
35577;BME280;21680;52.400;16.920;2023-05-22T05:05:21;101048.25;;;14.70;56.93
35577;BME280;21680;52.400;16.920;2023-05-22T05:07:47;101047.83;;;14.75;56.92
35577;BME280;21680;52.400;16.920;2023-05-22T05:10:14;101046.52;;;14.79;56.95
35577;BME280;21680;52.400;16.920;2023-05-22T05:12:39;101046.85;;;14.82;56.94
35577;BME280;21680;52.400;16.920;2023-05-22T05:15:06;101045.41;;;14.86;56.91
35577;BME280;21680;52.400;16.920;2023-05-22T05:17:31;101047.53;;;14.90;57.02
35577;BME280;21680;52.400;16.920;2023-05-22T05:19:56;101049.14;;;14.93;57.00
35577;BME280;21680;52.400;16.920;2023-05-22T05:22:21;101053.08;;;14.97;57.05
35577;BME280;21680;52.400;16.920;2023-05-22T05:24:47;101053.16;;;15.02;57.12
35577;BME280;21680;52.400;16.920;2023-05-22T05:27:12;101055.19;;;15.07;57.12
35577;BME280;21680;52.400;16.920;2023-05-22T05:29:38;101051.81;;;15.13;57.14
35577;BME280;21680;52.400;16.920;2023-05-22T05:32:04;101051.30;;;15.19;57.02
35577;BME280;21680;52.400;16.920;2023-05-22T05:34:29;101052.92;;;15.25;57.20
35577;BME280;21680;52.400;16.920;2023-05-22T05:36:54;101051.31;;;15.32;57.05
35577;BME280;21680;52.400;16.920;2023-05-22T05:39:21;101055.25;;;15.38;56.97
35577;BME280;21680;52.400;16.920;2023-05-22T05:41:46;101056.09;;;15.46;57.07
35577;BME280;21680;52.400;16.920;2023-05-22T05:44:11;101060.72;;;15.53;57.21
35577;BME280;21680;52.400;16.920;2023-05-22T05:46:37;101064.21;;;15.61;57.04
35577;BME280;21680;52.400;16.920;2023-05-22T05:49:09;101059.82;;;15.68;56.85
35577;BME280;21680;52.400;16.920;2023-05-22T05:51:38;101058.08;;;15.77;57.08
35577;BME280;21680;52.400;16.920;2023-05-22T05:54:04;101058.91;;;15.84;56.92
35577;BME280;21680;52.400;16.920;2023-05-22T05:56:29;101059.99;;;15.93;56.82
35577;BME280;21680;52.400;16.920;2023-05-22T05:58:55;101059.84;;;16.02;56.88
35577;BME280;21680;52.400;16.920;2023-05-22T06:01:20;101055.23;;;16.09;56.64
35577;BME280;21680;52.400;16.920;2023-05-22T06:03:48;101051.67;;;16.17;56.76
35577;BME280;21680;52.400;16.920;2023-05-22T06:06:14;101051.43;;;16.28;56.63
35577;BME280;21680;52.400;16.920;2023-05-22T06:08:39;101045.93;;;16.38;56.78
35577;BME280;21680;52.400;16.920;2023-05-22T06:11:06;101039.07;;;16.50;56.66
35577;BME280;21680;52.400;16.920;2023-05-22T06:13:31;101040.84;;;16.59;56.46
35577;BME280;21680;52.400;16.920;2023-05-22T06:15:56;101040.42;;;16.69;56.40
35577;BME280;21680;52.400;16.920;2023-05-22T06:18:21;101039.78;;;16.79;56.22
35577;BME280;21680;52.400;16.920;2023-05-22T06:20:49;101033.48;;;16.90;56.02
35577;BME280;21680;52.400;16.920;2023-05-22T06:23:14;101032.89;;;17.02;56.11
35577;BME280;21680;52.400;16.920;2023-05-22T06:25:39;101031.86;;;17.13;55.92
35577;BME280;21680;52.400;16.920;2023-05-22T06:28:05;101031.73;;;17.23;55.78
35577;BME280;21680;52.400;16.920;2023-05-22T06:30:30;101032.91;;;17.33;55.67
35577;BME280;21680;52.400;16.920;2023-05-22T06:32:55;101034.98;;;17.45;55.50
35577;BME280;21680;52.400;16.920;2023-05-22T06:35:21;101032.27;;;17.59;55.51
35577;BME280;21680;52.400;16.920;2023-05-22T06:37:46;101036.61;;;17.70;55.07
35577;BME280;21680;52.400;16.920;2023-05-22T06:40:11;101037.17;;;17.83;55.14
35577;BME280;21680;52.400;16.920;2023-05-22T06:42:37;101037.02;;;17.96;54.77
35577;BME280;21680;52.400;16.920;2023-05-22T06:45:03;101035.17;;;18.10;54.72
35577;BME280;21680;52.400;16.920;2023-05-22T06:47:28;101031.42;;;18.19;54.42
35577;BME280;21680;52.400;16.920;2023-05-22T06:49:53;101037.17;;;18.30;54.27
35577;BME280;21680;52.400;16.920;2023-05-22T06:52:18;101035.47;;;18.39;53.96
35577;BME280;21680;52.400;16.920;2023-05-22T06:54:44;101028.02;;;18.49;53.73
35577;BME280;21680;52.400;16.920;2023-05-22T06:57:09;101027.77;;;18.64;53.75
35577;BME280;21680;52.400;16.920;2023-05-22T06:59:34;101025.38;;;18.77;53.57
35577;BME280;21680;52.400;16.920;2023-05-22T07:02:00;101028.67;;;18.92;53.22
35577;BME280;21680;52.400;16.920;2023-05-22T07:04:25;101024.40;;;19.01;53.08
35577;BME280;21680;52.400;16.920;2023-05-22T07:06:51;101021.77;;;19.09;52.92
35577;BME280;21680;52.400;16.920;2023-05-22T07:09:18;101026.12;;;19.19;52.80
35577;BME280;21680;52.400;16.920;2023-05-22T07:11:44;101024.59;;;19.30;52.65
35577;BME280;21680;52.400;16.920;2023-05-22T07:14:10;101025.34;;;19.39;52.42
35577;BME280;21680;52.400;16.920;2023-05-22T07:16:40;101027.83;;;19.50;52.23
35577;BME280;21680;52.400;16.920;2023-05-22T07:19:06;101031.01;;;19.61;51.93
35577;BME280;21680;52.400;16.920;2023-05-22T07:21:33;101031.95;;;19.72;51.70
35577;BME280;21680;52.400;16.920;2023-05-22T07:24:01;101029.38;;;19.80;51.41
35577;BME280;21680;52.400;16.920;2023-05-22T07:26:32;101029.55;;;19.90;50.95
35577;BME280;21680;52.400;16.920;2023-05-22T07:28:57;101031.67;;;19.95;50.75
35577;BME280;21680;52.400;16.920;2023-05-22T07:31:22;101026.75;;;20.00;50.52
35577;BME280;21680;52.400;16.920;2023-05-22T07:33:48;101026.25;;;20.04;50.35
35577;BME280;21680;52.400;16.920;2023-05-22T07:36:13;101022.00;;;20.07;50.21
35577;BME280;21680;52.400;16.920;2023-05-22T07:38:38;101024.97;;;20.14;50.11
35577;BME280;21680;52.400;16.920;2023-05-22T07:41:03;101026.73;;;20.22;49.89
35577;BME280;21680;52.400;16.920;2023-05-22T07:43:29;101026.50;;;20.27;49.64
35577;BME280;21680;52.400;16.920;2023-05-22T07:45:55;101026.48;;;20.31;49.51
35577;BME280;21680;52.400;16.920;2023-05-22T07:48:20;101025.63;;;20.35;49.23
35577;BME280;21680;52.400;16.920;2023-05-22T07:50:46;101027.39;;;20.41;49.18
35577;BME280;21680;52.400;16.920;2023-05-22T07:53:11;101022.42;;;20.47;48.91
35577;BME280;21680;52.400;16.920;2023-05-22T07:55:37;101023.45;;;20.54;48.74
35577;BME280;21680;52.400;16.920;2023-05-22T07:58:03;101022.35;;;20.61;48.53
35577;BME280;21680;52.400;16.920;2023-05-22T08:00:29;101022.67;;;20.69;48.45
35577;BME280;21680;52.400;16.920;2023-05-22T08:02:55;101023.84;;;20.79;48.23
35577;BME280;21680;52.400;16.920;2023-05-22T08:05:20;101022.35;;;20.88;47.94
35577;BME280;21680;52.400;16.920;2023-05-22T08:07:46;101021.05;;;20.95;47.71
35577;BME280;21680;52.400;16.920;2023-05-22T08:10:16;101017.80;;;21.01;47.54
35577;BME280;21680;52.400;16.920;2023-05-22T08:12:41;101016.32;;;21.06;47.33
35577;BME280;21680;52.400;16.920;2023-05-22T08:15:07;101014.71;;;21.11;47.20
35577;BME280;21680;52.400;16.920;2023-05-22T08:17:32;101012.33;;;21.18;46.99
35577;BME280;21680;52.400;16.920;2023-05-22T08:19:58;101008.95;;;21.23;46.91
35577;BME280;21680;52.400;16.920;2023-05-22T08:22:23;101007.31;;;21.30;46.79
35577;BME280;21680;52.400;16.920;2023-05-22T08:24:48;101012.88;;;21.37;46.62
35577;BME280;21680;52.400;16.920;2023-05-22T08:27:13;101012.23;;;21.47;46.37
35577;BME280;21680;52.400;16.920;2023-05-22T08:29:39;101011.31;;;21.58;45.97
35577;BME280;21680;52.400;16.920;2023-05-22T08:32:04;101015.61;;;21.63;45.70
35577;BME280;21680;52.400;16.920;2023-05-22T08:34:30;101011.39;;;21.66;45.30
35577;BME280;21680;52.400;16.920;2023-05-22T08:36:57;101008.70;;;21.72;44.96
35577;BME280;21680;52.400;16.920;2023-05-22T08:39:23;101009.40;;;21.77;44.58
35577;BME280;21680;52.400;16.920;2023-05-22T08:41:49;101005.45;;;21.81;44.41
35577;BME280;21680;52.400;16.920;2023-05-22T08:44:14;101006.77;;;21.88;44.11
35577;BME280;21680;52.400;16.920;2023-05-22T08:46:40;101003.87;;;21.94;43.80
35577;BME280;21680;52.400;16.920;2023-05-22T08:49:08;101005.23;;;22.00;43.56
35577;BME280;21680;52.400;16.920;2023-05-22T08:51:37;101002.33;;;22.07;43.31
35577;BME280;21680;52.400;16.920;2023-05-22T08:54:07;101002.59;;;22.14;43.13
35577;BME280;21680;52.400;16.920;2023-05-22T08:56:37;101009.03;;;22.21;43.08
35577;BME280;21680;52.400;16.920;2023-05-22T08:59:05;101002.95;;;22.28;42.95
35577;BME280;21680;52.400;16.920;2023-05-22T09:01:31;100999.39;;;22.32;42.73
35577;BME280;21680;52.400;16.920;2023-05-22T09:04:00;100998.27;;;22.32;42.37
35577;BME280;21680;52.400;16.920;2023-05-22T09:06:27;100992.80;;;22.34;42.37
35577;BME280;21680;52.400;16.920;2023-05-22T09:08:56;100990.33;;;22.40;42.34
35577;BME280;21680;52.400;16.920;2023-05-22T09:11:22;100988.35;;;22.44;42.17
35577;BME280;21680;52.400;16.920;2023-05-22T09:13:48;100981.92;;;22.48;41.96
35577;BME280;21680;52.400;16.920;2023-05-22T09:16:15;100979.09;;;22.54;41.75
35577;BME280;21680;52.400;16.920;2023-05-22T09:18:41;100981.65;;;22.52;41.37
35577;BME280;21680;52.400;16.920;2023-05-22T09:21:07;100979.39;;;22.56;41.19
35577;BME280;21680;52.400;16.920;2023-05-22T09:23:33;100976.15;;;22.64;40.99
35577;BME280;21680;52.400;16.920;2023-05-22T09:25:59;100970.09;;;22.71;40.79
35577;BME280;21680;52.400;16.920;2023-05-22T09:28:25;100968.23;;;22.73;40.85
35577;BME280;21680;52.400;16.920;2023-05-22T09:30:52;100961.71;;;22.77;40.45
35577;BME280;21680;52.400;16.920;2023-05-22T09:33:18;100961.78;;;22.81;40.48
35577;BME280;21680;52.400;16.920;2023-05-22T09:35:50;100966.05;;;22.88;40.50
35577;BME280;21680;52.400;16.920;2023-05-22T09:38:16;100965.61;;;22.94;40.34
35577;BME280;21680;52.400;16.920;2023-05-22T09:40:41;100965.48;;;22.98;40.21
35577;BME280;21680;52.400;16.920;2023-05-22T09:43:10;100964.96;;;22.96;40.29
35577;BME280;21680;52.400;16.920;2023-05-22T09:45:37;100965.36;;;22.93;40.25
35577;BME280;21680;52.400;16.920;2023-05-22T09:48:03;100960.90;;;22.94;40.09
35577;BME280;21680;52.400;16.920;2023-05-22T09:50:29;100957.34;;;22.89;40.08
35577;BME280;21680;52.400;16.920;2023-05-22T09:52:55;100956.44;;;22.87;39.95
35577;BME280;21680;52.400;16.920;2023-05-22T09:55:21;100952.27;;;22.93;40.12
35577;BME280;21680;52.400;16.920;2023-05-22T09:57:50;100952.87;;;23.03;40.06
35577;BME280;21680;52.400;16.920;2023-05-22T10:00:16;100955.74;;;23.13;39.98
35577;BME280;21680;52.400;16.920;2023-05-22T10:02:45;100951.65;;;23.18;39.51
35577;BME280;21680;52.400;16.920;2023-05-22T10:05:12;100946.17;;;23.18;39.46
35577;BME280;21680;52.400;16.920;2023-05-22T10:07:48;100946.59;;;23.23;39.47
35577;BME280;21680;52.400;16.920;2023-05-22T10:10:20;100940.05;;;23.35;39.39
35577;BME280;21680;52.400;16.920;2023-05-22T10:12:55;100938.95;;;23.39;39.09
35577;BME280;21680;52.400;16.920;2023-05-22T10:15:21;100935.59;;;23.34;38.34
35577;BME280;21680;52.400;16.920;2023-05-22T10:17:47;100930.42;;;23.32;38.20
35577;BME280;21680;52.400;16.920;2023-05-22T10:20:14;100934.54;;;23.41;38.12
35577;BME280;21680;52.400;16.920;2023-05-22T10:22:40;100935.02;;;23.49;37.95
35577;BME280;21680;52.400;16.920;2023-05-22T10:25:06;100934.98;;;23.58;37.88
35577;BME280;21680;52.400;16.920;2023-05-22T10:27:32;100928.59;;;23.68;37.88
35577;BME280;21680;52.400;16.920;2023-05-22T10:30:09;100926.48;;;23.84;37.73
35577;BME280;21680;52.400;16.920;2023-05-22T10:32:56;100919.09;;;24.04;37.71
35577;BME280;21680;52.400;16.920;2023-05-22T10:35:53;100912.86;;;24.23;37.28
35577;BME280;21680;52.400;16.920;2023-05-22T10:41:13;100908.70;;;24.64;37.16
35577;BME280;21680;52.400;16.920;2023-05-22T10:43:42;100904.61;;;24.81;37.00
35577;BME280;21680;52.400;16.920;2023-05-22T10:46:10;100900.71;;;24.82;36.71
35577;BME280;21680;52.400;16.920;2023-05-22T10:48:37;100895.45;;;24.80;36.59
35577;BME280;21680;52.400;16.920;2023-05-22T10:51:03;100896.05;;;24.79;36.32
35577;BME280;21680;52.400;16.920;2023-05-22T10:53:32;100894.97;;;24.83;36.14
35577;BME280;21680;52.400;16.920;2023-05-22T10:55:59;100889.08;;;24.86;36.18
35577;BME280;21680;52.400;16.920;2023-05-22T10:58:33;100889.05;;;24.81;35.90
35577;BME280;21680;52.400;16.920;2023-05-22T11:08:55;100883.41;;;24.55;35.62
35577;BME280;21680;52.400;16.920;2023-05-22T11:11:27;100879.07;;;24.51;35.44
35577;BME280;21680;52.400;16.920;2023-05-22T11:13:53;100880.55;;;24.42;35.09
35577;BME280;21680;52.400;16.920;2023-05-22T11:16:30;100885.79;;;24.37;35.07
35577;BME280;21680;52.400;16.920;2023-05-22T11:19:05;100878.91;;;24.47;34.99
35577;BME280;21680;52.400;16.920;2023-05-22T11:21:43;100879.64;;;24.53;34.79
35577;BME280;21680;52.400;16.920;2023-05-22T11:24:09;100876.57;;;24.49;34.51
35577;BME280;21680;52.400;16.920;2023-05-22T11:26:35;100878.05;;;24.52;34.57
35577;BME280;21680;52.400;16.920;2023-05-22T11:29:00;100871.31;;;24.65;34.65
35577;BME280;21680;52.400;16.920;2023-05-22T11:31:26;100873.30;;;24.82;34.65
35577;BME280;21680;52.400;16.920;2023-05-22T11:33:52;100870.45;;;24.98;34.61
35577;BME280;21680;52.400;16.920;2023-05-22T11:36:18;100876.19;;;25.01;34.17
35577;BME280;21680;52.400;16.920;2023-05-22T11:38:43;100873.18;;;25.02;34.13
35577;BME280;21680;52.400;16.920;2023-05-22T11:41:09;100873.19;;;25.14;34.18
35577;BME280;21680;52.400;16.920;2023-05-22T11:43:36;100874.17;;;25.33;34.17
35577;BME280;21680;52.400;16.920;2023-05-22T11:46:05;100872.44;;;25.45;33.88
35577;BME280;21680;52.400;16.920;2023-05-22T11:48:33;100865.66;;;25.50;33.86
35577;BME280;21680;52.400;16.920;2023-05-22T11:50:59;100862.06;;;25.59;33.78
35577;BME280;21680;52.400;16.920;2023-05-22T11:53:24;100856.24;;;25.63;33.67
35577;BME280;21680;52.400;16.920;2023-05-22T11:55:50;100852.23;;;25.69;33.55
35577;BME280;21680;52.400;16.920;2023-05-22T11:58:20;100850.27;;;25.70;33.36
35577;BME280;21680;52.400;16.920;2023-05-22T12:00:46;100848.63;;;25.68;33.28
35577;BME280;21680;52.400;16.920;2023-05-22T12:03:12;100848.77;;;25.77;33.27
35577;BME280;21680;52.400;16.920;2023-05-22T12:05:37;100846.95;;;25.86;33.09
35577;BME280;21680;52.400;16.920;2023-05-22T12:08:03;100845.30;;;25.98;33.08
35577;BME280;21680;52.400;16.920;2023-05-22T12:10:30;100843.67;;;26.20;33.08
35577;BME280;21680;52.400;16.920;2023-05-22T12:12:55;100843.67;;;26.37;32.79
35577;BME280;21680;52.400;16.920;2023-05-22T12:15:20;100842.30;;;26.37;32.57
35577;BME280;21680;52.400;16.920;2023-05-22T12:17:46;100842.22;;;26.43;32.52
35577;BME280;21680;52.400;16.920;2023-05-22T12:20:12;100838.59;;;26.59;32.55
35577;BME280;21680;52.400;16.920;2023-05-22T12:22:42;100834.21;;;26.74;32.25
35577;BME280;21680;52.400;16.920;2023-05-22T12:25:14;100831.98;;;26.76;32.00
35577;BME280;21680;52.400;16.920;2023-05-22T12:27:42;100830.23;;;26.84;31.97
35577;BME280;21680;52.400;16.920;2023-05-22T12:30:11;100831.60;;;26.93;31.81
35577;BME280;21680;52.400;16.920;2023-05-22T12:32:38;100829.50;;;27.09;31.80
35577;BME280;21680;52.400;16.920;2023-05-22T12:35:04;100826.00;;;27.34;31.87
35577;BME280;21680;52.400;16.920;2023-05-22T12:37:32;100815.75;;;27.48;31.42
35577;BME280;21680;52.400;16.920;2023-05-22T12:39:59;100816.46;;;27.35;31.15
35577;BME280;21680;52.400;16.920;2023-05-22T12:42:26;100815.66;;;27.10;31.02
35577;BME280;21680;52.400;16.920;2023-05-22T12:44:53;100809.10;;;26.93;31.03
35577;BME280;21680;52.400;16.920;2023-05-22T12:47:19;100813.27;;;26.92;30.99
35577;BME280;21680;52.400;16.920;2023-05-22T12:49:44;100811.65;;;26.90;30.72
35577;BME280;21680;52.400;16.920;2023-05-22T12:52:10;100810.97;;;27.14;30.92
35577;BME280;21680;52.400;16.920;2023-05-22T12:54:35;100804.04;;;27.39;30.77